createdAt,value
2022-08-29T00:02:30.323Z,1005.56
2022-08-29T00:07:30.163Z,1005.66
2022-08-29T00:12:30.110Z,1005.62
2022-08-29T00:17:30.056Z,1005.67
2022-08-29T00:22:29.970Z,1005.62
2022-08-29T00:27:29.903Z,1005.64
2022-08-29T00:32:30.008Z,1005.75
2022-08-29T00:37:29.768Z,1005.73
2022-08-29T00:42:29.755Z,1005.74
2022-08-29T00:47:29.646Z,1005.73
2022-08-29T00:52:29.572Z,1005.76
2022-08-29T00:57:29.507Z,1005.86
2022-08-29T01:02:29.485Z,1005.81
2022-08-29T01:07:29.384Z,1005.87
2022-08-29T01:12:29.310Z,1005.90
2022-08-29T01:17:29.250Z,1005.79
2022-08-29T01:22:29.182Z,1005.85
2022-08-29T01:27:29.111Z,1005.93
2022-08-29T01:32:29.118Z,1005.97
2022-08-29T01:37:29.095Z,1005.94
2022-08-29T01:42:28.922Z,1005.96
2022-08-29T01:47:29.854Z,1005.91
2022-08-29T01:52:28.832Z,1005.96
2022-08-29T01:57:28.732Z,1006.05
2022-08-29T02:02:28.724Z,1006.00
2022-08-29T02:07:28.595Z,1005.99
2022-08-29T02:12:28.553Z,1006.10
2022-08-29T02:17:28.466Z,1006.08
2022-08-29T02:22:28.409Z,1006.04
2022-08-29T02:27:28.408Z,1006.01
2022-08-29T02:32:28.267Z,1005.96
2022-08-29T02:37:28.237Z,1006.00
2022-08-29T02:42:28.409Z,1006.04
2022-08-29T02:47:28.069Z,1006.10
2022-08-29T02:52:28.033Z,1006.15
2022-08-29T02:57:27.937Z,1006.14
2022-08-29T03:02:27.866Z,1006.16
2022-08-29T03:07:27.799Z,1006.17
2022-08-29T03:12:27.726Z,1006.22
2022-08-29T03:17:27.693Z,1006.18
2022-08-29T03:22:27.603Z,1006.20
2022-08-29T03:27:27.532Z,1006.26
2022-08-29T03:32:27.461Z,1006.12
2022-08-29T03:37:27.417Z,1006.17
2022-08-29T03:42:27.318Z,1006.28
2022-08-29T03:47:27.520Z,1006.32
2022-08-29T03:52:27.218Z,1006.34
2022-08-29T03:57:27.209Z,1006.43
2022-08-29T04:02:27.098Z,1006.40
2022-08-29T04:07:27.004Z,1006.42
2022-08-29T04:12:26.948Z,1006.43
2022-08-29T04:17:26.878Z,1006.41
2022-08-29T04:22:26.821Z,1006.40
2022-08-29T04:27:26.749Z,1006.47
2022-08-29T04:32:26.691Z,1006.59
2022-08-29T04:37:26.659Z,1006.50
2022-08-29T04:42:26.568Z,1006.60
2022-08-29T04:47:26.508Z,1006.61
2022-08-29T04:52:26.717Z,1006.54
2022-08-29T04:57:26.385Z,1006.72
2022-08-29T05:02:26.338Z,1006.77
2022-08-29T05:07:26.248Z,1006.92
2022-08-29T05:12:26.162Z,1006.87
2022-08-29T05:17:26.092Z,1006.98
2022-08-29T05:22:26.048Z,1006.86
2022-08-29T05:27:25.966Z,1006.93
2022-08-29T05:32:25.892Z,1006.92
2022-08-29T05:37:25.875Z,1006.98
2022-08-29T05:42:25.763Z,1006.98
2022-08-29T05:47:25.703Z,1006.91
2022-08-29T05:52:25.679Z,1006.90
2022-08-29T05:57:25.767Z,1006.98
2022-08-29T06:02:25.608Z,1006.94
2022-08-29T06:07:25.452Z,1006.96
2022-08-29T06:12:25.400Z,1007.05
2022-08-29T06:17:25.335Z,1007.07
2022-08-29T06:22:25.303Z,1007.11
2022-08-29T06:27:25.242Z,1007.15
2022-08-29T06:32:25.146Z,1007.06
2022-08-29T06:37:25.112Z,1007.11
2022-08-29T06:42:25.044Z,1007.10
2022-08-29T06:47:24.993Z,1007.15
2022-08-29T06:52:24.894Z,1007.14
2022-08-29T06:57:24.851Z,1007.18
2022-08-29T07:02:25.062Z,1007.19
2022-08-29T07:07:24.714Z,1007.20
2022-08-29T07:12:24.669Z,1007.21
2022-08-29T07:17:25.905Z,1007.13
2022-08-29T07:22:24.527Z,1007.12
2022-08-29T07:27:24.476Z,1007.14
2022-08-29T07:32:26.048Z,1007.06
2022-08-29T07:37:24.361Z,1007.03
2022-08-29T07:42:25.032Z,1007.06
2022-08-29T07:47:24.250Z,1007.10
2022-08-29T07:52:24.166Z,1007.09
2022-08-29T07:57:24.116Z,1007.13
2022-08-29T08:02:24.071Z,1007.07
2022-08-29T08:07:29.275Z,1007.02
2022-08-29T08:12:24.940Z,1007.08
2022-08-29T08:17:23.863Z,1007.00
2022-08-29T08:22:23.802Z,1007.02
2022-08-29T08:27:23.784Z,1007.09
2022-08-29T08:32:23.663Z,1007.21
2022-08-29T08:37:27.759Z,1007.04
2022-08-29T08:42:25.012Z,1007.00
2022-08-29T08:47:23.498Z,1007.05
2022-08-29T08:52:23.489Z,1007.02
2022-08-29T08:57:23.401Z,1007.02
2022-08-29T09:02:23.330Z,1006.94
2022-08-29T09:07:23.257Z,1007.01
2022-08-29T09:12:23.433Z,1007.05
2022-08-29T09:17:23.167Z,1007.06
2022-08-29T09:22:23.064Z,1007.10
2022-08-29T09:27:22.985Z,1007.03
2022-08-29T09:32:22.977Z,1007.12
2022-08-29T09:37:22.826Z,1007.01
2022-08-29T09:42:22.758Z,1007.02
2022-08-29T09:47:22.677Z,1007.07
2022-08-29T09:52:22.661Z,1007.02
2022-08-29T09:57:22.565Z,1007.03
2022-08-29T10:02:22.545Z,1006.88
2022-08-29T10:07:22.438Z,1006.98
2022-08-29T10:12:22.368Z,1006.93
2022-08-29T10:17:22.488Z,1006.89
2022-08-29T10:27:22.169Z,1006.97
2022-08-29T10:32:22.730Z,1006.85
2022-08-29T10:37:22.015Z,1006.96
2022-08-29T10:42:21.943Z,1006.99
2022-08-29T10:47:21.884Z,1006.98
2022-08-29T10:52:21.817Z,1006.94
2022-08-29T10:57:21.741Z,1006.91
2022-08-29T11:02:21.677Z,1006.88
2022-08-29T11:07:21.607Z,1006.88
2022-08-29T11:12:21.545Z,1006.86
2022-08-29T11:17:21.480Z,1006.80
2022-08-29T11:22:21.671Z,1006.79
2022-08-29T11:27:21.359Z,1006.73
2022-08-29T11:32:21.294Z,1006.84
2022-08-29T11:37:21.218Z,1006.77
2022-08-29T11:47:22.111Z,1006.77
2022-08-29T11:52:22.449Z,1006.75
2022-08-29T11:57:20.945Z,1006.65
2022-08-29T12:02:20.932Z,1006.80
2022-08-29T12:07:20.809Z,1006.77
2022-08-29T12:12:20.755Z,1006.78
2022-08-29T12:17:20.700Z,1006.75
2022-08-29T12:22:22.455Z,1006.69
2022-08-29T12:27:20.739Z,1006.71
2022-08-29T12:32:22.716Z,1006.61
2022-08-29T12:37:20.432Z,1006.68
2022-08-29T12:42:20.362Z,1006.65
2022-08-29T12:47:20.303Z,1006.57
2022-08-29T12:52:20.244Z,1006.56
2022-08-29T12:57:20.183Z,1006.45
2022-08-29T13:02:20.160Z,1006.45
2022-08-29T13:07:20.040Z,1006.48
2022-08-29T13:12:19.987Z,1006.28
2022-08-29T13:17:19.907Z,1006.35
2022-08-29T13:22:19.842Z,1006.31
2022-08-29T13:27:19.808Z,1006.32
2022-08-29T13:32:19.904Z,1006.30
2022-08-29T13:37:20.635Z,1006.27
2022-08-29T13:42:19.613Z,1006.21
2022-08-29T13:47:19.539Z,1006.17
2022-08-29T13:52:19.462Z,1006.27
2022-08-29T13:57:19.408Z,1006.09
2022-08-29T14:02:19.507Z,1006.09
2022-08-29T14:07:19.277Z,1006.12
2022-08-29T14:12:19.209Z,1006.10
2022-08-29T14:17:19.154Z,1006.07
2022-08-29T14:22:19.067Z,1006.01
2022-08-29T14:27:19.000Z,1006.11
2022-08-29T14:32:18.957Z,1005.98
2022-08-29T14:37:19.052Z,1005.96
2022-08-29T14:42:18.812Z,1005.90
2022-08-29T14:47:18.761Z,1005.98
2022-08-29T14:52:18.672Z,1005.86
2022-08-29T14:57:18.611Z,1005.87
2022-08-29T15:02:18.677Z,1005.88
2022-08-29T15:07:18.483Z,1005.73
2022-08-29T15:12:18.433Z,1005.68
2022-08-29T15:17:18.402Z,1005.61
2022-08-29T15:22:18.318Z,1005.60
2022-08-29T15:27:18.220Z,1005.60
2022-08-29T15:32:18.370Z,1005.62
2022-08-29T15:37:18.088Z,1005.71
2022-08-29T15:42:18.018Z,1005.65
2022-08-29T15:47:17.957Z,1005.67
2022-08-29T15:52:17.989Z,1005.63
2022-08-29T15:57:17.857Z,1005.58
2022-08-29T16:02:17.805Z,1005.45
2022-08-29T16:07:17.768Z,1005.54
2022-08-29T16:12:17.761Z,1005.52
2022-08-29T16:17:17.615Z,1005.47
2022-08-29T16:22:17.623Z,1005.38
2022-08-29T16:27:17.459Z,1005.34
2022-08-29T16:32:17.686Z,1005.31
2022-08-29T16:37:17.307Z,1005.32
2022-08-29T16:42:17.481Z,1005.30
2022-08-29T16:47:17.178Z,1005.25
2022-08-29T16:52:17.118Z,1005.28
2022-08-29T16:57:17.060Z,1005.40
2022-08-29T17:02:17.118Z,1005.52
2022-08-29T17:07:17.051Z,1005.55
2022-08-29T17:12:16.861Z,1005.55
2022-08-29T17:17:16.847Z,1005.64
2022-08-29T17:22:16.723Z,1005.54
2022-08-29T17:27:20.819Z,1005.57
2022-08-29T17:32:16.595Z,1005.66
2022-08-29T17:37:16.581Z,1005.61
2022-08-29T17:42:16.446Z,1005.60
2022-08-29T17:47:16.678Z,1005.62
2022-08-29T17:52:16.346Z,1005.71
2022-08-29T17:57:16.288Z,1005.64
2022-08-29T18:02:16.227Z,1005.75
2022-08-29T18:07:16.128Z,1005.78
2022-08-29T18:12:16.119Z,1005.85
2022-08-29T18:17:15.998Z,1005.87
2022-08-29T18:22:15.937Z,1005.88
2022-08-29T18:27:15.880Z,1005.91
2022-08-29T18:32:15.794Z,1006.07
2022-08-29T18:37:15.735Z,1006.06
2022-08-29T18:42:30.800Z,1006.08
2022-08-29T18:47:16.864Z,1006.09
2022-08-29T18:52:15.532Z,1006.09
2022-08-29T18:57:15.517Z,1006.22
2022-08-29T19:02:15.539Z,1006.28
2022-08-29T19:07:15.350Z,1006.27
2022-08-29T19:12:16.268Z,1006.31
2022-08-29T19:17:15.266Z,1006.37
2022-08-29T19:22:15.149Z,1006.32
2022-08-29T19:27:39.560Z,1006.36
2022-08-29T19:32:16.074Z,1006.34
2022-08-29T19:37:14.939Z,1006.42
2022-08-29T19:42:16.802Z,1006.48
2022-08-29T19:47:14.829Z,1006.45
2022-08-29T19:52:14.946Z,1006.41
2022-08-29T19:57:14.981Z,1006.54
2022-08-29T20:02:14.705Z,1006.47
2022-08-29T20:07:14.573Z,1006.49
2022-08-29T20:12:14.536Z,1006.58
2022-08-29T20:17:14.626Z,1006.59
2022-08-29T20:22:14.367Z,1006.64
2022-08-29T20:27:14.284Z,1006.64
2022-08-29T20:32:14.241Z,1006.58
2022-08-29T20:37:14.188Z,1006.67
2022-08-29T20:42:14.095Z,1006.67
2022-08-29T20:47:14.034Z,1006.73
2022-08-29T20:52:13.945Z,1006.85
2022-08-29T20:57:14.818Z,1006.84
2022-08-29T21:02:13.953Z,1006.84
2022-08-29T21:07:13.801Z,1006.86
2022-08-29T21:12:13.686Z,1006.88
2022-08-29T21:17:13.646Z,1006.97
2022-08-29T21:22:13.585Z,1006.97
2022-08-29T21:27:13.517Z,1007.02
2022-08-29T21:32:13.509Z,1007.12
2022-08-29T21:37:13.389Z,1007.05
2022-08-29T21:42:13.310Z,1007.11
2022-08-29T21:47:17.643Z,1007.10
2022-08-29T21:52:13.169Z,1007.09
2022-08-29T21:57:13.101Z,1007.13
2022-08-29T22:02:13.067Z,1007.11
2022-08-29T22:07:12.988Z,1007.13
2022-08-29T22:12:12.891Z,1007.15
2022-08-29T22:17:12.830Z,1007.18
2022-08-29T22:22:12.779Z,1007.23
2022-08-29T22:27:12.701Z,1007.12
2022-08-29T22:32:12.621Z,1007.09
2022-08-29T22:37:12.601Z,1007.10
2022-08-29T22:42:12.501Z,1007.12
2022-08-29T22:47:12.440Z,1007.08
2022-08-29T22:52:12.371Z,1007.18
2022-08-29T22:57:12.292Z,1007.23
2022-08-29T23:02:12.412Z,1007.22
2022-08-29T23:07:12.208Z,1007.27
2022-08-29T23:12:12.095Z,1007.16
2022-08-29T23:17:12.032Z,1007.15
2022-08-29T23:22:11.969Z,1007.15
2022-08-29T23:27:11.909Z,1007.20
2022-08-29T23:32:11.843Z,1007.19
2022-08-29T23:37:11.793Z,1007.19
2022-08-29T23:42:11.716Z,1007.16
2022-08-29T23:47:11.655Z,1007.12
2022-08-29T23:52:11.633Z,1007.05
2022-08-29T23:57:11.596Z,1007.14
